Time;durP1;ratioP1;P1;durP2;ratioP2;P2;SDS_P1;SDS_P2;PMS_P1;PMS_P2;Temp;Humidity;BMP_temperature;BMP_pressure;BME280_temperature;BME280_humidity;BME280_pressure;Samples;Min_cycle;Max_cycle;Signal;HPM_P1;HPM_P2
2021/06/20 00:00:32;;;;;;;;;;;18.30;99.90;;;;;;5033223;28;20054;-69
2021/06/20 00:02:58;;;;;;;14.73;11.35;;;18.20;99.90;;;;;;5037406;28;19983;-68
2021/06/20 00:05:29;;;;;;;16.75;12.57;;;18.30;99.90;;;;;;5037161;28;20414;-68
2021/06/20 00:07:56;;;;;;;14.90;12.30;;;18.30;99.90;;;;;;5034412;28;20056;-68
2021/06/20 00:10:25;;;;;;;17.55;12.75;;;18.30;99.90;;;;;;5039071;28;20076;-68
2021/06/20 00:12:53;;;;;;;16.17;13.27;;;18.30;99.90;;;;;;5033232;28;20132;-68
2021/06/20 00:15:21;;;;;;;16.30;12.30;;;18.30;99.90;;;;;;5031092;28;20057;-68
2021/06/20 00:17:49;;;;;;;19.63;13.52;;;18.30;99.90;;;;;;5035029;28;20503;-68
2021/06/20 00:20:18;;;;;;;17.13;13.07;;;18.30;99.90;;;;;;5041312;28;20089;-68
2021/06/20 00:22:46;;;;;;;18.88;13.20;;;18.30;99.90;;;;;;5037841;28;20085;-68
2021/06/20 00:25:14;;;;;;;16.30;13.57;;;18.30;99.90;;;;;;5036827;28;20553;-68
2021/06/20 00:27:42;;;;;;;16.10;12.80;;;18.30;99.90;;;;;;5038987;28;20135;-68
2021/06/20 00:30:16;;;;;;;15.93;13.35;;;18.30;99.90;;;;;;5039735;28;20085;-69
2021/06/20 00:32:44;;;;;;;18.25;13.70;;;18.40;99.90;;;;;;5037612;28;20197;-68
2021/06/20 00:35:11;;;;;;;15.88;12.40;;;18.40;99.90;;;;;;5052702;28;20095;-68
2021/06/20 00:37:38;;;;;;;17.50;12.95;;;18.40;99.90;;;;;;5047434;28;20049;-68
2021/06/20 00:40:48;;;;;;;16.27;13.38;;;18.40;99.90;;;;;;5056755;28;20144;-68
2021/06/20 00:43:15;;;;;;;17.55;13.60;;;18.40;99.90;;;;;;5046696;28;20523;-68
2021/06/20 00:45:42;;;;;;;17.25;13.05;;;18.40;99.90;;;;;;5061969;28;20091;-68
2021/06/20 00:48:09;;;;;;;18.37;13.60;;;18.40;99.90;;;;;;5055336;28;20477;-69
2021/06/20 00:50:36;;;;;;;16.88;13.00;;;18.40;99.90;;;;;;5055882;28;20076;-69
2021/06/20 00:53:04;;;;;;;16.42;13.38;;;18.40;99.90;;;;;;5055988;28;20044;-68
2021/06/20 00:55:34;;;;;;;16.63;13.60;;;18.40;99.90;;;;;;5062813;28;20676;-68
2021/06/20 00:58:01;;;;;;;16.30;13.20;;;18.50;99.90;;;;;;5053643;28;20088;-69
2021/06/20 01:00:29;;;;;;;17.75;14.20;;;18.50;99.90;;;;;;5060761;28;20084;-68
2021/06/20 01:02:56;;;;;;;18.10;14.15;;;18.50;99.90;;;;;;5052654;28;20099;-68
2021/06/20 01:05:23;;;;;;;18.27;13.30;;;18.50;99.90;;;;;;5058323;28;20520;-68
2021/06/20 01:07:52;;;;;;;17.88;13.18;;;18.50;99.90;;;;;;5058884;28;20041;-68
2021/06/20 01:10:22;;;;;;;17.30;13.40;;;18.50;99.90;;;;;;5051960;28;20080;-68
2021/06/20 01:12:50;;;;;;;16.42;13.45;;;18.50;99.90;;;;;;5052210;28;20077;-68
2021/06/20 01:15:17;;;;;;;17.97;13.07;;;18.50;99.90;;;;;;5054224;28;20052;-68
2021/06/20 01:17:45;;;;;;;17.38;12.75;;;18.50;99.90;;;;;;5055010;28;20150;-68
2021/06/20 01:20:15;;;;;;;18.05;13.05;;;18.50;99.90;;;;;;5063094;28;20052;-68
2021/06/20 01:22:48;;;;;;;17.83;13.40;;;18.50;99.90;;;;;;5053216;28;22275;-68
2021/06/20 01:25:18;;;;;;;19.10;13.82;;;18.50;99.90;;;;;;5036941;28;20069;-68
2021/06/20 01:27:52;;;;;;;16.90;12.77;;;18.50;99.90;;;;;;5057951;28;20045;-68
2021/06/20 01:30:26;;;;;;;16.77;13.20;;;18.50;99.90;;;;;;5056230;28;20569;-68
2021/06/20 01:32:55;;;;;;;17.98;13.48;;;18.50;99.90;;;;;;5050810;28;20502;-68
2021/06/20 01:35:23;;;;;;;16.83;12.65;;;18.50;99.90;;;;;;5046763;28;20103;-69
2021/06/20 01:37:52;;;;;;;17.77;13.35;;;18.50;99.90;;;;;;5051614;28;20057;-68
2021/06/20 01:40:20;;;;;;;19.60;13.27;;;18.50;99.90;;;;;;5052618;28;20130;-68
2021/06/20 01:42:48;;;;;;;16.77;13.20;;;18.50;99.90;;;;;;5050618;28;20121;-68
2021/06/20 01:45:17;;;;;;;18.77;13.77;;;18.50;99.90;;;;;;5053495;28;20554;-69
2021/06/20 01:47:45;;;;;;;17.23;13.32;;;18.50;99.90;;;;;;5052481;28;20051;-68
2021/06/20 01:50:15;;;;;;;17.65;13.38;;;18.60;99.90;;;;;;5056714;28;20485;-68
2021/06/20 01:52:42;;;;;;;18.55;13.73;;;18.60;99.90;;;;;;5036451;28;20104;-68
2021/06/20 01:55:11;;;;;;;17.05;13.15;;;18.60;99.90;;;;;;5060430;28;20391;-68
2021/06/20 01:57:41;;;;;;;17.98;13.00;;;18.60;99.90;;;;;;5027441;28;20072;-68
2021/06/20 02:00:14;;;;;;;17.15;13.40;;;18.50;99.90;;;;;;5058540;28;20053;-68
2021/06/20 02:02:42;;;;;;;17.98;14.35;;;18.50;99.90;;;;;;5054562;28;20045;-68
2021/06/20 02:05:10;;;;;;;20.55;13.88;;;18.50;99.90;;;;;;5059903;28;20144;-68
2021/06/20 02:07:37;;;;;;;20.40;13.82;;;18.50;99.90;;;;;;5053152;28;20112;-68
2021/06/20 02:10:12;;;;;;;19.60;14.68;;;18.50;99.90;;;;;;5054278;28;20076;-68
2021/06/20 02:12:39;;;;;;;20.10;14.95;;;18.50;99.90;;;;;;5054769;28;20084;-68
2021/06/20 02:15:09;;;;;;;17.83;13.77;;;18.50;99.90;;;;;;5052692;28;20528;-68
2021/06/20 02:17:37;;;;;;;19.45;14.32;;;18.40;99.90;;;;;;5055545;28;20045;-69
2021/06/20 02:20:08;;;;;;;;;;;18.50;99.90;;;;;;5042843;28;20203;-68
2021/06/20 02:22:35;;;;;;;21.08;14.32;;;18.40;99.90;;;;;;5033976;28;19964;-68
2021/06/20 02:25:03;;;;;;;21.37;14.23;;;18.50;99.90;;;;;;5056252;28;20469;-68
2021/06/20 02:27:30;;;;;;;18.23;13.85;;;18.50;99.90;;;;;;5052106;28;20084;-68
2021/06/20 02:29:57;;;;;;;22.52;15.68;;;18.50;99.90;;;;;;5059597;28;20049;-68
2021/06/20 02:32:26;;;;;;;19.97;14.90;;;18.50;99.90;;;;;;5057584;28;20102;-68
2021/06/20 02:34:53;;;;;;;20.92;15.02;;;18.50;99.90;;;;;;5034901;28;20115;-68
2021/06/20 02:37:22;;;;;;;22.45;15.73;;;18.40;99.90;;;;;;5050045;28;20080;-68
2021/06/20 02:39:49;;;;;;;23.75;15.05;;;18.40;99.90;;;;;;5067004;28;20125;-68
2021/06/20 02:42:17;;;;;;;24.98;15.50;;;18.40;99.90;;;;;;5056316;28;20077;-69
2021/06/20 02:44:47;;;;;;;23.00;16.57;;;18.40;99.90;;;;;;5035713;28;20111;-68
2021/06/20 02:47:14;;;;;;;24.73;17.70;;;18.30;99.90;;;;;;5053761;28;20399;-68
2021/06/20 02:49:42;;;;;;;21.67;15.68;;;18.20;99.90;;;;;;5063962;28;20068;-69
2021/06/20 02:52:10;;;;;;;21.42;14.45;;;18.10;99.90;;;;;;5056431;28;20334;-69
2021/06/20 02:54:49;;;;;;;19.55;13.43;;;18.10;99.90;;;;;;5064043;28;20140;-69
2021/06/20 02:57:24;;;;;;;16.08;11.75;;;18.00;99.90;;;;;;5058965;28;20489;-68
2021/06/20 02:59:56;;;;;;;15.43;10.90;;;18.00;99.90;;;;;;5071070;28;20083;-68
2021/06/20 03:02:24;;;;;;;16.42;11.20;;;18.00;99.90;;;;;;5042247;28;20131;-68
2021/06/20 03:04:52;;;;;;;15.68;10.23;;;18.00;99.90;;;;;;5041276;28;20501;-69
2021/06/20 03:07:19;;;;;;;13.95;10.65;;;18.00;99.90;;;;;;5054767;28;20048;-68
2021/06/20 03:09:46;;;;;;;13.55;9.85;;;18.00;99.90;;;;;;5067110;28;20072;-68
2021/06/20 03:12:14;;;;;;;12.32;8.55;;;18.00;99.90;;;;;;5038430;28;20136;-68
2021/06/20 03:14:42;;;;;;;11.38;7.78;;;18.00;99.90;;;;;;5035978;28;20131;-68
2021/06/20 03:17:11;;;;;;;10.57;6.25;;;18.00;99.90;;;;;;5057596;28;20151;-68
2021/06/20 03:19:39;;;;;;;7.63;5.38;;;17.90;99.90;;;;;;5060827;28;20511;-68
2021/06/20 03:22:06;;;;;;;8.45;4.70;;;17.90;99.90;;;;;;5043396;28;20053;-68
2021/06/20 03:24:38;;;;;;;7.15;4.32;;;17.90;99.90;;;;;;5061697;28;20079;-68
2021/06/20 03:27:05;;;;;;;5.53;3.50;;;17.80;99.90;;;;;;5062897;28;20127;-68
2021/06/20 03:29:31;;;;;;;6.35;3.75;;;17.80;99.90;;;;;;5046611;28;20068;-68
2021/06/20 03:31:58;;;;;;;5.97;3.67;;;17.80;99.90;;;;;;5043137;28;20071;-68
2021/06/20 03:34:25;;;;;;;6.00;3.50;;;17.70;99.90;;;;;;5047636;28;20143;-68
2021/06/20 03:36:52;;;;;;;6.82;3.72;;;17.70;99.90;;;;;;5064305;28;20095;-68
2021/06/20 03:39:19;;;;;;;5.55;3.53;;;17.70;99.90;;;;;;5042787;28;20295;-68
2021/06/20 03:41:46;;;;;;;5.40;3.42;;;17.70;99.90;;;;;;5052702;28;20136;-68
2021/06/20 03:44:12;;;;;;;5.53;2.95;;;17.70;99.90;;;;;;5053846;28;20083;-68
2021/06/20 03:46:39;;;;;;;4.32;2.45;;;17.70;99.90;;;;;;5050129;28;20072;-68
2021/06/20 03:49:07;;;;;;;7.28;3.25;;;17.70;99.90;;;;;;5044263;28;20055;-68
2021/06/20 03:51:34;;;;;;;5.22;3.15;;;17.60;99.90;;;;;;5060454;28;20128;-69
2021/06/20 03:54:01;;;;;;;4.78;3.28;;;17.60;99.90;;;;;;5063083;28;20073;-68
2021/06/20 03:56:28;;;;;;;4.72;3.05;;;17.60;99.90;;;;;;5054468;28;20471;-68
2021/06/20 03:58:55;;;;;;;4.78;2.90;;;17.50;99.90;;;;;;5035441;28;20078;-68
2021/06/20 04:01:22;;;;;;;4.97;3.00;;;17.60;99.90;;;;;;5051308;28;20057;-68
2021/06/20 04:03:49;;;;;;;4.53;3.03;;;17.50;99.90;;;;;;5058597;28;20690;-68
2021/06/20 04:06:15;;;;;;;5.72;3.20;;;17.50;99.90;;;;;;5068301;28;20117;-68
2021/06/20 04:08:42;;;;;;;4.18;2.85;;;17.60;99.90;;;;;;5060463;28;20091;-68
2021/06/20 04:11:11;;;;;;;3.97;2.70;;;17.60;99.90;;;;;;5063260;28;20125;-68
2021/06/20 04:13:38;;;;;;;4.30;2.70;;;17.60;99.90;;;;;;5050970;28;20190;-68
2021/06/20 04:16:05;;;;;;;7.50;3.35;;;17.60;99.90;;;;;;5048681;28;20076;-68
2021/06/20 04:18:32;;;;;;;3.70;2.42;;;17.60;99.90;;;;;;5053583;28;20065;-68
2021/06/20 04:20:58;;;;;;;5.38;2.83;;;17.60;99.90;;;;;;5059347;28;20052;-68
2021/06/20 04:23:25;;;;;;;4.72;2.67;;;17.70;99.90;;;;;;5063394;28;20072;-68
2021/06/20 04:25:52;;;;;;;4.93;3.00;;;17.70;99.90;;;;;;5056110;28;20186;-68
2021/06/20 04:28:21;;;;;;;4.65;2.83;;;17.70;99.90;;;;;;5052549;28;20083;-68
2021/06/20 04:30:53;;;;;;;;;;;17.70;99.90;;;;;;5047938;28;20131;-68
2021/06/20 04:33:21;;;;;;;4.80;2.90;;;17.80;99.90;;;;;;5059585;28;19967;-68
2021/06/20 04:35:48;;;;;;;4.65;3.17;;;17.80;99.90;;;;;;5058696;28;20108;-68
2021/06/20 04:38:15;;;;;;;5.05;3.20;;;17.80;99.90;;;;;;5042236;28;20049;-68
2021/06/20 04:40:42;;;;;;;4.15;2.70;;;17.80;99.90;;;;;;5039716;28;20131;-68
2021/06/20 04:43:24;;;;;;;5.18;3.20;;;17.80;99.90;;;;;;5048011;28;20139;-68
2021/06/20 04:45:51;;;;;;;5.90;3.60;;;17.80;99.90;;;;;;5045800;28;20135;-68
2021/06/20 04:48:18;;;;;;;5.07;3.17;;;17.80;99.90;;;;;;5042168;28;20036;-68
2021/06/20 04:50:45;;;;;;;5.30;3.40;;;17.80;99.90;;;;;;5060508;28;20064;-68
2021/06/20 04:53:14;;;;;;;4.75;3.17;;;17.70;99.90;;;;;;5046176;28;21200;-69
2021/06/20 04:55:41;;;;;;;5.55;3.35;;;17.70;99.90;;;;;;5024223;28;20148;-68
2021/06/20 04:58:08;;;;;;;4.43;3.00;;;17.70;99.90;;;;;;5046284;28;20083;-69
2021/06/20 05:00:35;;;;;;;5.32;3.13;;;17.70;99.90;;;;;;5005222;28;20061;-68
2021/06/20 05:03:02;;;;;;;4.97;3.17;;;17.60;99.90;;;;;;5036325;28;20095;-69
2021/06/20 05:05:29;;;;;;;6.22;3.15;;;17.60;99.90;;;;;;5041942;28;20428;-69
2021/06/20 05:07:55;;;;;;;6.68;4.10;;;17.50;99.90;;;;;;5041398;28;20125;-69
2021/06/20 05:10:22;;;;;;;5.20;3.40;;;17.50;99.90;;;;;;5042665;28;20434;-69
2021/06/20 05:12:54;;;;;;;5.95;3.40;;;17.50;99.90;;;;;;5038370;28;20547;-69
2021/06/20 05:15:21;;;;;;;6.47;3.40;;;17.50;99.90;;;;;;5031452;28;20532;-69
2021/06/20 05:17:49;;;;;;;5.45;3.10;;;17.50;99.90;;;;;;5032404;28;20056;-69
2021/06/20 05:20:16;;;;;;;6.30;3.20;;;17.40;99.90;;;;;;5059616;28;20074;-69
2021/06/20 05:22:43;;;;;;;5.35;2.83;;;17.40;99.90;;;;;;5047650;28;20040;-69
2021/06/20 05:25:10;;;;;;;6.00;3.40;;;17.40;99.90;;;;;;5051338;28;20109;-68
2021/06/20 05:27:37;;;;;;;5.07;3.03;;;17.50;99.90;;;;;;5047597;28;20399;-69
2021/06/20 05:30:04;;;;;;;7.10;3.50;;;17.40;99.90;;;;;;5047775;28;20563;-69
2021/06/20 05:32:31;;;;;;;4.28;2.75;;;17.40;99.90;;;;;;5032324;28;20044;-69
2021/06/20 05:35:01;;;;;;;5.32;2.65;;;17.40;99.90;;;;;;5035927;28;20410;-69
2021/06/20 05:37:29;;;;;;;4.95;2.83;;;17.40;99.90;;;;;;5042360;28;20604;-69
2021/06/20 05:39:56;;;;;;;6.65;2.83;;;17.40;99.90;;;;;;5026940;28;20049;-69
2021/06/20 05:42:23;;;;;;;5.28;2.47;;;17.40;99.90;;;;;;5053176;28;20048;-68
2021/06/20 05:44:49;;;;;;;4.20;2.28;;;17.30;99.90;;;;;;5034994;28;20087;-69
2021/06/20 05:47:16;;;;;;;3.72;2.25;;;17.30;99.90;;;;;;5046086;28;20072;-69
2021/06/20 05:49:43;;;;;;;2.70;1.83;;;17.30;99.90;;;;;;5014023;28;20142;-69
2021/06/20 05:52:09;;;;;;;4.18;2.35;;;17.30;99.90;;;;;;5043665;28;20188;-69
2021/06/20 05:54:36;;;;;;;3.90;2.38;;;17.30;99.90;;;;;;5013927;28;20525;-69
2021/06/20 05:57:03;;;;;;;6.47;2.42;;;17.30;99.90;;;;;;5029908;28;20525;-69
2021/06/20 05:59:30;;;;;;;3.55;2.10;;;17.30;99.90;;;;;;5032988;28;20581;-69
2021/06/20 06:01:57;;;;;;;3.78;2.40;;;17.30;99.90;;;;;;5027929;28;20053;-69
2021/06/20 06:04:24;;;;;;;5.68;3.05;;;17.30;99.90;;;;;;5026264;28;20103;-68
2021/06/20 06:06:51;;;;;;;4.75;3.05;;;17.40;99.90;;;;;;5042937;28;20137;-69
2021/06/20 06:09:17;;;;;;;4.75;3.00;;;17.30;99.90;;;;;;5027016;28;20138;-69
2021/06/20 06:11:44;;;;;;;4.30;3.05;;;17.30;99.90;;;;;;5031337;28;20084;-69
2021/06/20 06:14:11;;;;;;;3.88;2.83;;;17.30;99.90;;;;;;5030462;28;20045;-68
2021/06/20 06:16:38;;;;;;;3.70;2.83;;;17.30;99.90;;;;;;5032649;28;20128;-69
2021/06/20 06:19:05;;;;;;;7.07;3.95;;;17.40;99.90;;;;;;5031422;28;20515;-69
2021/06/20 06:21:31;;;;;;;8.18;4.90;;;17.40;99.90;;;;;;5030498;28;20445;-70
2021/06/20 06:24:03;;;;;;;5.30;3.72;;;17.40;99.90;;;;;;5046087;28;20095;-69
2021/06/20 06:26:30;;;;;;;6.70;4.13;;;17.40;99.90;;;;;;5027831;28;20045;-69
2021/06/20 06:28:57;;;;;;;5.47;4.07;;;17.40;99.90;;;;;;5031973;28;20046;-69
2021/06/20 06:31:24;;;;;;;5.60;3.75;;;17.40;99.90;;;;;;5031888;28;20449;-69
2021/06/20 06:33:50;;;;;;;7.63;4.30;;;17.50;99.90;;;;;;5031385;28;20405;-69
2021/06/20 06:36:18;;;;;;;3.97;2.75;;;17.40;99.90;;;;;;5046774;28;20504;-69
2021/06/20 06:38:45;;;;;;;5.95;2.70;;;17.50;99.90;;;;;;5031183;28;20107;-69
2021/06/20 06:41:12;;;;;;;4.68;2.97;;;17.50;99.90;;;;;;5034752;28;20135;-68
2021/06/20 06:43:47;;;;;;;4.50;3.03;;;17.50;99.90;;;;;;5031762;28;20077;-69
2021/06/20 06:46:15;;;;;;;6.07;3.00;;;17.50;99.90;;;;;;5030361;28;20084;-68
2021/06/20 06:48:42;;;;;;;5.47;3.35;;;17.50;99.90;;;;;;5032827;28;20044;-68
2021/06/20 06:51:09;;;;;;;5.33;3.43;;;17.50;99.90;;;;;;5032589;28;20464;-69
2021/06/20 06:53:36;;;;;;;4.68;3.40;;;17.50;99.90;;;;;;5033575;28;20390;-71
2021/06/20 06:56:03;;;;;;;4.53;2.85;;;17.60;99.90;;;;;;5046339;28;20357;-71
2021/06/20 06:58:30;;;;;;;6.38;4.18;;;17.60;99.90;;;;;;5031882;28;20076;-71
2021/06/20 07:00:56;;;;;;;7.43;4.60;;;17.60;99.90;;;;;;5030202;28;20049;-71
2021/06/20 07:03:23;;;;;;;6.93;4.65;;;17.60;99.90;;;;;;5031019;28;20042;-71
2021/06/20 07:05:50;;;;;;;8.23;5.93;;;17.60;99.90;;;;;;5033526;28;20116;-71
2021/06/20 07:08:17;;;;;;;7.03;5.05;;;17.60;99.90;;;;;;5051933;28;20056;-71
2021/06/20 07:10:44;;;;;;;8.25;4.88;;;17.60;99.90;;;;;;5035165;28;20476;-72
2021/06/20 07:13:10;;;;;;;7.97;6.07;;;17.60;99.90;;;;;;5029862;28;20455;-71
2021/06/20 07:15:37;;;;;;;8.88;6.50;;;17.60;99.90;;;;;;5031241;28;20448;-72
2021/06/20 07:18:04;;;;;;;10.40;7.32;;;17.60;99.90;;;;;;5031015;28;20393;-72
2021/06/20 07:20:31;;;;;;;7.30;6.22;;;17.60;99.90;;;;;;5033114;28;20500;-71
2021/06/20 07:22:58;;;;;;;7.47;6.18;;;17.60;99.90;;;;;;5030787;28;20128;-71
2021/06/20 07:26:01;;;;;;;8.70;6.90;;;17.70;99.90;;;;;;5033189;28;20081;-71
2021/06/20 07:28:28;;;;;;;11.73;9.30;;;17.70;99.90;;;;;;5031582;28;20207;-70
2021/06/20 07:30:55;;;;;;;8.45;6.85;;;17.70;99.90;;;;;;5044928;28;20466;-70
2021/06/20 07:33:33;;;;;;;9.07;7.35;;;17.70;99.90;;;;;;5044252;28;20060;-69
2021/06/20 07:36:10;;;;;;;10.35;7.10;;;17.80;99.90;;;;;;5032162;28;20064;-72
2021/06/20 07:38:39;;;;;;;9.80;8.20;;;17.80;99.90;;;;;;5048279;28;20121;-72
2021/06/20 07:41:09;;;;;;;10.35;8.38;;;17.80;99.90;;;;;;5043962;28;24830;-71
2021/06/20 07:43:36;;;;;;;10.40;8.10;;;17.90;99.90;;;;;;5013612;28;20052;-72
2021/06/20 07:46:15;;;;;;;11.07;9.00;;;17.90;99.90;;;;;;5033829;28;20084;-71
2021/06/20 07:48:52;;;;;;;12.20;8.95;;;18.00;99.90;;;;;;5018787;28;20517;-71
2021/06/20 07:51:19;;;;;;;12.45;10.02;;;18.00;99.90;;;;;;5033631;28;20404;-71
2021/06/20 07:53:45;;;;;;;10.57;9.15;;;18.10;99.90;;;;;;5028334;28;20049;-71
2021/06/20 07:56:12;;;;;;;10.85;8.40;;;18.10;99.90;;;;;;5032161;28;20096;-71
2021/06/20 07:58:39;;;;;;;13.45;10.30;;;18.20;99.90;;;;;;5047823;28;20622;-71
2021/06/20 08:01:06;;;;;;;10.80;8.98;;;18.30;99.90;;;;;;5029492;28;20057;-71
2021/06/20 08:03:34;;;;;;;11.80;9.80;;;18.30;99.90;;;;;;5030823;28;20384;-71
2021/06/20 08:06:01;;;;;;;11.77;8.95;;;18.40;99.90;;;;;;5028448;28;20064;-71
2021/06/20 08:08:28;;;;;;;13.57;9.95;;;18.50;99.90;;;;;;5030446;28;20092;-71
2021/06/20 08:10:56;;;;;;;11.13;8.40;;;18.60;99.90;;;;;;5032801;28;20137;-71
2021/06/20 08:13:24;;;;;;;14.23;10.68;;;18.70;99.90;;;;;;5023996;28;20147;-71
2021/06/20 08:15:50;;;;;;;12.45;9.38;;;18.80;99.90;;;;;;5012855;28;20448;-72
2021/06/20 08:18:17;;;;;;;12.90;9.93;;;18.90;99.90;;;;;;5028128;28;20128;-71
2021/06/20 08:21:08;;;;;;;11.05;8.65;;;18.90;99.90;;;;;;5029608;28;20504;-72
2021/06/20 08:23:35;;;;;;;13.68;10.27;;;19.00;99.90;;;;;;5034251;28;20516;-71
2021/06/20 08:26:02;;;;;;;12.27;9.80;;;19.00;99.90;;;;;;5015829;28;20087;-73
2021/06/20 08:28:29;;;;;;;12.00;9.27;;;19.00;99.90;;;;;;5013356;28;20551;-72
2021/06/20 08:30:55;;;;;;;11.52;9.20;;;19.10;99.90;;;;;;5043456;28;20303;-71
2021/06/20 08:33:22;;;;;;;11.02;9.20;;;19.20;99.90;;;;;;5023818;28;20045;-72
2021/06/20 08:35:49;;;;;;;12.75;9.75;;;19.20;99.90;;;;;;5027285;28;20130;-72
2021/06/20 08:38:16;;;;;;;11.98;9.07;;;19.30;99.90;;;;;;5028513;28;20148;-71
2021/06/20 08:40:43;;;;;;;13.40;10.50;;;19.30;99.90;;;;;;5026831;28;20076;-71
2021/06/20 08:43:10;;;;;;;12.90;9.52;;;19.30;99.90;;;;;;5012679;28;20142;-72
2021/06/20 08:45:37;;;;;;;12.23;9.47;;;19.30;99.90;;;;;;5029161;28;20052;-71
2021/06/20 08:48:09;;;;;;;12.45;9.80;;;19.20;99.90;;;;;;5016667;28;20068;-71
2021/06/20 08:50:36;;;;;;;12.63;9.18;;;19.20;99.90;;;;;;5032144;28;20049;-71
2021/06/20 08:53:03;;;;;;;12.70;9.95;;;19.30;99.90;;;;;;5032509;28;20049;-72
2021/06/20 08:55:30;;;;;;;12.27;9.43;;;19.30;99.90;;;;;;5032106;28;20140;-71
2021/06/20 08:58:24;;;;;;;12.00;9.15;;;19.30;99.90;;;;;;5029062;28;20468;-71
2021/06/20 09:00:50;;;;;;;12.00;10.10;;;19.30;99.90;;;;;;5027003;28;20103;-72
2021/06/20 09:03:17;;;;;;;10.80;9.13;;;19.30;99.90;;;;;;5043746;28;20069;-72
2021/06/20 09:06:18;;;;;;;12.73;10.68;;;19.30;99.90;;;;;;5028694;28;20136;-72
2021/06/20 09:08:47;;;;;;;13.30;10.77;;;19.20;99.90;;;;;;5030301;28;20044;-72
2021/06/20 09:11:37;;;;;;;12.10;9.98;;;19.20;99.90;;;;;;5026787;28;20061;-72
2021/06/20 09:14:10;;;;;;;14.10;11.32;;;19.20;99.90;;;;;;5027584;28;20077;-72
2021/06/20 09:16:48;;;;;;;13.15;9.88;;;19.20;99.90;;;;;;5027811;28;20144;-71
2021/06/20 09:19:16;;;;;;;13.20;10.00;;;19.30;99.90;;;;;;5030982;28;20156;-71
2021/06/20 09:21:56;;;;;;;13.38;10.05;;;19.30;99.90;;;;;;5028244;28;20084;-72
2021/06/20 09:24:23;;;;;;;14.13;10.38;;;19.30;99.90;;;;;;5028224;28;20077;-72
2021/06/20 09:26:55;;;;;;;13.55;10.07;;;19.40;99.90;;;;;;5029017;28;20084;-72
2021/06/20 09:29:37;;;;;;;16.15;11.40;;;19.40;99.90;;;;;;5028628;28;20073;-72
2021/06/20 09:32:06;;;;;;;18.38;11.52;;;19.50;99.90;;;;;;5026141;28;20072;-72
2021/06/20 09:34:50;;;;;;;16.52;11.45;;;19.50;99.90;;;;;;5028260;28;20045;-72
2021/06/20 09:37:20;;;;;;;15.90;10.82;;;19.60;99.90;;;;;;5027262;28;20117;-71
2021/06/20 09:39:47;;;;;;;18.30;12.02;;;19.60;99.90;;;;;;5027909;28;20088;-72
2021/06/20 09:42:16;;;;;;;18.67;11.20;;;19.70;99.90;;;;;;5011203;28;20361;-72
2021/06/20 09:44:47;;;;;;;24.90;16.17;;;19.90;99.90;;;;;;5026549;28;20131;-72
2021/06/20 09:47:19;;;;;;;26.65;17.67;;;19.90;99.90;;;;;;5028945;28;20595;-71
2021/06/20 09:49:49;;;;;;;30.25;18.75;;;20.00;99.90;;;;;;5011955;28;20045;-72
2021/06/20 09:52:33;;;;;;;29.30;19.20;;;20.10;99.90;;;;;;5026372;28;20072;-71
2021/06/20 09:55:03;;;;;;;33.50;20.25;;;20.20;99.90;;;;;;5029082;28;20111;-72
2021/06/20 09:57:45;;;;;;;28.00;17.17;;;20.30;99.90;;;;;;5003860;28;20536;-72
2021/06/20 10:00:14;;;;;;;30.48;17.85;;;20.40;99.90;;;;;;5031738;28;20624;-71
2021/06/20 10:02:43;;;;;;;27.70;16.77;;;20.40;99.90;;;;;;5028561;28;20116;-72
2021/06/20 10:05:11;;;;;;;30.30;17.60;;;20.50;99.90;;;;;;5045688;28;20084;-72
2021/06/20 10:07:38;;;;;;;30.75;18.65;;;20.70;99.90;;;;;;5027171;28;20073;-71
2021/06/20 10:10:08;;;;;;;25.23;15.17;;;20.80;99.90;;;;;;5030423;28;20061;-71
2021/06/20 10:12:35;;;;;;;21.67;13.45;;;20.80;99.90;;;;;;5009987;28;20103;-72
2021/06/20 10:15:09;;;;;;;26.38;15.05;;;20.80;99.90;;;;;;5033924;28;20051;-72
2021/06/20 10:17:40;;;;;;;23.30;13.57;;;20.80;99.90;;;;;;5025281;28;20049;-72
2021/06/20 10:20:10;;;;;;;24.88;13.23;;;20.80;99.90;;;;;;5026720;28;20176;-71
2021/06/20 10:22:44;;;;;;;24.63;14.50;;;20.80;99.90;;;;;;5030111;28;20088;-72
2021/06/20 10:25:24;;;;;;;23.60;14.63;;;20.80;99.90;;;;;;5043444;28;20053;-72
2021/06/20 10:28:11;;;;;;;21.67;13.18;;;20.80;99.90;;;;;;5009692;28;20414;-71
2021/06/20 10:30:38;;;;;;;30.00;17.70;;;20.80;99.90;;;;;;5027271;28;20046;-71
2021/06/20 10:33:22;;;;;;;30.58;18.85;;;20.80;99.90;;;;;;5027056;28;20441;-72
2021/06/20 10:36:07;;;;;;;34.42;19.02;;;20.80;99.90;;;;;;5026231;28;20104;-72
2021/06/20 10:38:41;;;;;;;39.10;21.85;;;20.90;99.90;;;;;;5010303;28;20080;-71
2021/06/20 10:41:23;;;;;;;40.55;21.80;;;21.00;99.90;;;;;;5028519;28;20496;-72
2021/06/20 10:44:00;;;;;;;40.47;23.27;;;21.10;99.90;;;;;;5027321;28;20059;-71
2021/06/20 10:46:27;;;;;;;38.67;19.63;;;21.30;99.90;;;;;;5028291;28;20053;-72
2021/06/20 10:48:54;;;;;;;43.15;22.20;;;21.40;99.90;;;;;;5030627;28;20046;-72
2021/06/20 10:51:23;;;;;;;40.58;21.85;;;21.50;99.90;;;;;;5011955;28;20501;-72
2021/06/20 10:53:51;;;;;;;38.92;21.15;;;21.60;99.90;;;;;;5027120;28;20397;-72
2021/06/20 10:56:22;;;;;;;;;;;21.70;99.90;;;;;;5025621;28;20045;-72
2021/06/20 10:58:51;;;;;;;38.85;20.67;;;21.70;99.90;;;;;;5030934;28;20439;-72
2021/06/20 11:01:20;;;;;;;33.95;19.98;;;21.70;99.90;;;;;;5026179;28;20148;-71
2021/06/20 11:03:50;;;;;;;32.90;19.60;;;21.80;99.90;;;;;;5035050;28;20817;-72
2021/06/20 11:06:22;;;;;;;39.10;20.55;;;21.80;99.90;;;;;;5030137;28;20045;-72
2021/06/20 11:09:06;;;;;;;31.20;16.88;;;21.90;99.90;;;;;;5030778;28;20073;-72
2021/06/20 11:11:35;;;;;;;30.25;16.90;;;21.80;99.90;;;;;;5031358;28;20056;-72
2021/06/20 11:14:19;;;;;;;22.92;13.25;;;21.80;99.90;;;;;;5031167;28;20090;-72
2021/06/20 11:16:48;;;;;;;22.45;13.07;;;21.80;99.90;;;;;;5027962;28;20513;-72
2021/06/20 11:19:25;;;;;;;23.83;13.32;;;21.90;99.90;;;;;;5030779;28;20053;-72
2021/06/20 11:21:57;;;;;;;23.90;13.38;;;21.90;99.90;;;;;;5029749;28;20790;-71
2021/06/20 11:24:31;;;;;;;22.58;12.95;;;21.90;99.90;;;;;;5033278;28;20119;-72
2021/06/20 11:27:00;;;;;;;21.50;13.38;;;21.90;99.90;;;;;;5029141;28;20073;-71
2021/06/20 11:29:40;;;;;;;19.83;11.65;;;22.00;99.90;;;;;;5032187;28;20099;-72
2021/06/20 11:32:16;;;;;;;22.45;12.30;;;22.10;99.90;;;;;;5029116;28;20577;-72
2021/06/20 11:34:48;;;;;;;20.15;11.30;;;22.10;99.90;;;;;;5029961;28;20069;-71
2021/06/20 11:37:25;;;;;;;25.88;13.63;;;22.10;99.90;;;;;;5030674;28;20131;-72
2021/06/20 11:39:57;;;;;;;27.77;16.08;;;22.10;99.90;;;;;;5031365;28;20565;-72
2021/06/20 11:42:30;;;;;;;27.63;16.10;;;22.10;99.90;;;;;;5029604;28;20081;-71
2021/06/20 11:44:59;;;;;;;27.83;15.63;;;22.10;99.90;;;;;;5028704;28;20076;-72
2021/06/20 11:47:32;;;;;;;28.70;15.60;;;22.00;99.90;;;;;;5031040;28;20107;-72
2021/06/20 11:50:32;;;;;;;31.10;17.70;;;22.00;99.90;;;;;;5030344;28;20065;-72
2021/06/20 11:53:01;;;;;;;25.73;15.13;;;22.00;99.90;;;;;;4981960;28;20041;-72
2021/06/20 11:55:31;;;;;;;27.17;15.68;;;22.00;99.90;;;;;;5030999;28;20183;-72
2021/06/20 11:58:03;;;;;;;25.55;15.38;;;21.90;99.90;;;;;;5010682;28;20080;-72
2021/06/20 12:00:31;;;;;;;24.85;13.90;;;21.90;99.90;;;;;;5045292;28;20140;-72
2021/06/20 12:03:02;;;;;;;;;;;21.90;99.90;;;;;;5011186;28;20053;-72
2021/06/20 12:05:30;;;;;;;23.83;13.40;;;22.00;99.90;;;;;;5010437;28;19971;-72
2021/06/20 12:08:02;;;;;;;22.83;11.65;;;22.00;99.90;;;;;;5028453;28;20555;-72
2021/06/20 12:10:36;;;;;;;19.33;11.60;;;22.00;99.90;;;;;;5029009;28;20085;-72
2021/06/20 12:13:04;;;;;;;18.40;10.27;;;22.10;99.90;;;;;;5028857;28;20077;-72
2021/06/20 12:15:34;;;;;;;15.43;9.45;;;22.20;99.90;;;;;;5028432;28;20537;-71
2021/06/20 12:18:05;;;;;;;16.23;9.63;;;22.30;99.90;;;;;;5028400;28;20096;-72
2021/06/20 12:20:52;;;;;;;15.23;9.60;;;22.40;99.90;;;;;;5027646;28;20099;-72
2021/06/20 12:23:34;;;;;;;16.45;9.48;;;22.50;99.90;;;;;;5027941;28;20069;-72
2021/06/20 12:26:02;;;;;;;13.38;7.57;;;22.50;99.90;;;;;;5031035;28;20144;-72
2021/06/20 12:28:28;;;;;;;11.23;6.75;;;22.50;99.90;;;;;;5013178;28;20069;-72
2021/06/20 12:30:56;;;;;;;10.98;5.97;;;22.50;99.90;;;;;;5034922;28;20076;-72
2021/06/20 12:33:24;;;;;;;;;;;22.50;99.90;;;;;;5027233;28;20053;-72
2021/06/20 12:35:54;;;;;;;8.73;5.32;;;22.50;99.90;;;;;;5028714;28;20436;-71
2021/06/20 12:38:23;;;;;;;9.38;5.53;;;22.50;99.90;;;;;;5046316;28;20069;-71
2021/06/20 12:40:50;;;;;;;10.93;5.88;;;22.60;99.90;;;;;;5026401;28;20057;-72
2021/06/20 12:43:19;;;;;;;10.15;5.88;;;22.60;99.90;;;;;;5030632;28;20484;-71
2021/06/20 12:45:57;;;;;;;9.57;5.82;;;22.60;99.90;;;;;;5028748;28;20136;-72
2021/06/20 12:48:24;;;;;;;;;;;22.60;99.90;;;;;;5010814;28;20474;-72
2021/06/20 12:50:54;;;;;;;11.60;5.45;;;22.70;99.90;;;;;;5030078;28;20018;-72